Time;durP1;ratioP1;P1;durP2;ratioP2;P2;SDS_P1;SDS_P2;PMS_P1;PMS_P2;Temp;Humidity;BMP_temperature;BMP_pressure;BME280_temperature;BME280_humidity;BME280_pressure;Samples;Min_cycle;Max_cycle;Signal;HPM_P1;HPM_P2
2023/02/15 00:02:24;;;;;;;12.07;8.73;;;2.30;99.90;1.50;98308.00;;;;5066721;28;20442;-68
2023/02/15 00:05:13;;;;;;;12.47;8.07;;;0.40;99.90;1.40;98305.00;;;;5065256;28;20418;-68
2023/02/15 00:08:02;;;;;;;15.73;7.10;;;2.30;99.90;1.50;98305.00;;;;5068131;28;20775;-68
2023/02/15 00:10:50;;;;;;;12.73;7.77;;;1.20;99.90;1.50;98293.00;;;;5068871;28;20856;-67
2023/02/15 00:13:42;;;;;;;11.93;8.70;;;1.40;99.90;1.40;98298.00;;;;5069124;28;20459;-68
2023/02/15 00:16:30;;;;;;;12.53;7.73;;;1.00;99.90;1.50;98304.00;;;;5069786;28;20890;-68
2023/02/15 00:19:21;;;;;;;14.47;7.80;;;1.50;99.90;1.40;98299.00;;;;5069608;28;20930;-68
2023/02/15 00:22:10;;;;;;;10.93;8.10;;;0.50;99.90;1.50;98291.00;;;;5068702;28;20435;-68
2023/02/15 00:24:59;;;;;;;10.27;8.23;;;2.40;99.90;1.50;98295.00;;;;5071384;28;20496;-68
2023/02/15 00:27:48;;;;;;;9.47;7.03;;;2.00;99.90;1.60;98304.00;;;;5067703;28;20419;-67
2023/02/15 00:30:38;;;;;;;14.60;9.60;;;2.10;99.90;1.60;98297.00;;;;5070509;28;20411;-68
2023/02/15 00:33:27;;;;;;;16.90;10.27;;;1.80;99.90;1.60;98295.00;;;;5071047;28;20438;-68
2023/02/15 00:36:15;;;;;;;12.70;8.87;;;1.90;99.90;1.70;98296.00;;;;5072185;28;20977;-68
2023/02/15 00:39:05;;;;;;;12.57;8.33;;;1.10;99.90;1.80;98309.00;;;;5070755;28;20434;-68
2023/02/15 00:41:54;;;;;;;13.60;9.03;;;1.30;99.90;1.70;98304.00;;;;5071234;28;20414;-68
2023/02/15 00:44:42;;;;;;;9.80;7.83;;;2.20;99.90;1.80;98302.00;;;;5061845;28;20418;-68
2023/02/15 00:47:33;;;;;;;14.60;8.73;;;0.60;99.90;1.50;98297.00;;;;5071218;28;20437;-68
2023/02/15 00:50:22;;;;;;;12.30;8.57;;;1.70;99.90;1.40;98294.00;;;;5071236;28;20500;-68
2023/02/15 00:53:11;;;;;;;14.43;8.50;;;0.60;99.90;1.80;98304.00;;;;5070346;28;20458;-68
2023/02/15 00:56:00;;;;;;;15.03;8.33;;;1.20;99.90;1.80;98307.00;;;;5066772;28;20843;-69
2023/02/15 00:58:49;;;;;;;18.30;9.13;;;2.30;99.90;1.70;98296.00;;;;5071183;28;20559;-68
2023/02/15 01:01:38;;;;;;;13.30;8.73;;;2.40;99.90;1.80;98305.00;;;;5072382;28;20430;-68
2023/02/15 01:04:28;;;;;;;12.70;7.87;;;1.60;99.90;1.90;98297.00;;;;5071966;28;20500;-68
2023/02/15 01:07:17;;;;;;;11.53;7.67;;;1.50;99.90;2.00;98291.00;;;;5071595;28;20426;-68
2023/02/15 01:10:07;;;;;;;11.10;8.97;;;0.70;99.90;2.00;98294.00;;;;5058124;28;20427;-68
2023/02/15 01:12:57;;;;;;;14.97;8.87;;;0.80;99.90;1.90;98285.00;;;;5070486;28;20474;-67
2023/02/15 01:15:46;;;;;;;10.77;8.33;;;2.30;99.90;1.80;98283.00;;;;5070907;28;20470;-67
2023/02/15 01:18:36;;;;;;;10.73;7.27;;;2.20;99.90;1.80;98284.00;;;;5063851;28;20445;-69
2023/02/15 01:21:27;;;;;;;15.10;9.57;;;0.80;99.90;1.70;98280.00;;;;5068828;28;20442;-67
2023/02/15 01:24:16;;;;;;;11.87;9.13;;;0.90;99.90;1.90;98273.00;;;;5070588;28;20920;-68
2023/02/15 01:27:04;;;;;;;15.23;10.43;;;1.30;99.90;2.00;98272.00;;;;5069708;28;20437;-68
2023/02/15 01:29:53;;;;;;;15.30;9.13;;;1.30;99.90;2.10;98272.00;;;;5070424;28;20430;-68
2023/02/15 01:32:43;;;;;;;19.20;10.63;;;1.00;99.90;2.10;98266.00;;;;5070261;28;20450;-68
2023/02/15 01:35:32;;;;;;;13.93;9.37;;;0.90;99.90;2.20;98259.00;;;;5070377;28;20497;-67
2023/02/15 01:38:22;;;;;;;16.17;10.00;;;2.30;99.90;2.10;98268.00;;;;5060976;28;20422;-68
2023/02/15 01:41:22;;;;;;;14.27;10.77;;;1.20;99.90;2.20;98258.00;;;;5070472;28;20442;-68
2023/02/15 01:44:49;;;;;;;15.83;10.43;;;1.30;99.90;2.30;98271.00;;;;5070310;28;20454;-68
2023/02/15 01:47:42;;;;;;;11.47;9.30;;;1.00;99.90;2.20;98250.00;;;;5068782;28;20422;-69
2023/02/15 01:50:34;;;;;;;15.57;9.20;;;1.10;99.90;2.20;98262.00;;;;5068776;28;20419;-68
2023/02/15 01:53:28;;;;;;;16.00;10.17;;;1.40;99.90;2.20;98254.00;;;;5070473;28;20830;-68
2023/02/15 01:56:21;;;;;;;13.83;8.97;;;2.20;99.90;2.20;98253.00;;;;5068996;28;20458;-68
2023/02/15 01:59:18;;;;;;;15.17;11.57;;;1.10;99.90;2.20;98239.00;;;;5064197;28;20440;-68
2023/02/15 02:02:10;;;;;;;13.93;9.40;;;1.10;99.90;2.40;98245.00;;;;5066150;28;20426;-67
2023/02/15 02:05:06;;;;;;;19.47;8.93;;;2.20;99.90;2.40;98233.00;;;;5069395;28;20652;-68
2023/02/15 02:07:59;;;;;;;11.77;8.83;;;2.30;99.90;2.30;98230.00;;;;5060365;28;20441;-68
2023/02/15 02:10:49;;;;;;;14.73;9.63;;;2.60;99.90;2.20;98225.00;;;;5064460;28;20417;-68
2023/02/15 02:13:38;;;;;;;8.43;7.00;;;1.10;99.90;2.10;98227.00;;;;5068263;28;20807;-68
2023/02/15 02:16:33;;;;;;;15.07;8.70;;;1.50;99.90;2.40;98225.00;;;;5069641;28;20466;-67
2023/02/15 02:20:03;;;;;;;13.77;7.90;;;1.30;99.90;2.30;98217.00;;;;5057682;28;20976;-69
2023/02/15 02:23:20;;;;;;;14.60;9.80;;;1.20;99.90;2.30;98214.00;;;;5069035;28;20458;-69
2023/02/15 02:27:14;;;;;;;14.87;9.27;;;1.20;99.90;2.50;98211.00;;;;5069093;28;20419;-69
2023/02/15 02:30:38;;;;;;;12.10;8.57;;;1.20;99.90;2.50;98212.00;;;;5066884;28;20487;-68
2023/02/15 02:34:00;;;;;;;15.17;10.07;;;1.60;99.90;2.50;98210.00;;;;5069886;28;20461;-68
2023/02/15 02:36:57;;;;;;;11.53;8.73;;;1.20;99.90;2.40;98193.00;;;;5066685;28;20466;-68
2023/02/15 02:39:54;;;;;;;9.40;7.50;;;1.40;99.90;2.50;98209.00;;;;5068147;28;20427;-68
2023/02/15 02:42:50;;;;;;;13.23;8.40;;;2.30;99.90;2.50;98206.00;;;;5068779;28;20443;-68
2023/02/15 02:45:46;;;;;;;11.80;8.87;;;1.20;99.90;2.50;98210.00;;;;5069979;28;20418;-69
2023/02/15 02:48:37;;;;;;;13.87;9.57;;;1.30;99.90;2.50;98199.00;;;;5068036;28;20438;-68
2023/02/15 02:51:26;;;;;;;13.70;9.97;;;1.90;99.90;2.50;98203.00;;;;5068778;28;20419;-68
2023/02/15 02:54:15;;;;;;;11.70;9.43;;;1.30;99.90;2.30;98192.00;;;;5068277;28;20965;-68
2023/02/15 02:57:07;;;;;;;13.67;8.50;;;1.30;99.90;2.10;98194.00;;;;5068317;28;20470;-68
2023/02/15 02:59:58;;;;;;;16.73;9.90;;;2.20;99.90;2.20;98192.00;;;;5068959;28;20422;-68
2023/02/15 03:02:52;;;;;;;13.40;8.80;;;1.80;99.90;2.30;98191.00;;;;5068964;28;20435;-68
2023/02/15 03:05:46;;;;;;;14.97;10.33;;;1.20;99.90;2.30;98183.00;;;;5062538;28;20426;-68
2023/02/15 03:08:41;;;;;;;13.17;9.97;;;1.40;99.90;2.50;98192.00;;;;5068226;28;20427;-67
2023/02/15 03:11:30;;;;;;;17.23;9.93;;;1.30;99.90;2.50;98195.00;;;;5068174;28;20430;-69
2023/02/15 03:14:20;;;;;;;12.57;8.63;;;1.20;99.90;2.40;98180.00;;;;5057041;28;20454;-69
2023/02/15 03:17:10;;;;;;;17.60;10.27;;;1.20;99.90;2.40;98191.00;;;;5068123;28;20477;-69
2023/02/15 03:20:05;;;;;;;11.37;8.70;;;1.20;99.90;2.40;98187.00;;;;5069266;28;20425;-69
2023/02/15 03:23:00;;;;;;;12.47;9.53;;;1.30;99.90;2.30;98184.00;;;;5067871;28;20507;-69
2023/02/15 03:25:53;;;;;;;11.80;8.97;;;1.70;99.90;2.40;98187.00;;;;5067405;28;20833;-69
2023/02/15 03:28:46;;;;;;;13.67;8.53;;;1.40;99.90;2.50;98194.00;;;;5067572;28;20460;-69
2023/02/15 03:31:40;;;;;;;13.70;8.57;;;1.30;99.90;2.50;98199.00;;;;5068159;28;20433;-70
2023/02/15 03:34:30;;;;;;;14.47;8.40;;;2.10;99.90;2.70;98199.00;;;;5073713;28;20425;-69
2023/02/15 03:37:27;;;;;;;12.83;9.47;;;1.30;99.90;2.50;98191.00;;;;5057897;28;20462;-69
2023/02/15 03:43:39;;;;;;;12.77;8.80;;;1.90;99.90;2.50;98188.00;;;;5067155;28;20445;-69
2023/02/15 03:46:33;;;;;;;12.73;7.70;;;1.30;99.90;2.30;98186.00;;;;5066876;28;20491;-69
2023/02/15 03:49:28;;;;;;;17.73;7.60;;;1.30;99.90;2.30;98187.00;;;;5067630;28;20426;-69
2023/02/15 03:52:18;;;;;;;12.67;8.20;;;1.30;99.90;2.30;98183.00;;;;5068996;28;20433;-69
2023/02/15 03:55:07;;;;;;;11.73;8.03;;;1.30;99.90;2.40;98186.00;;;;5072453;28;20422;-69
2023/02/15 04:04:21;;;;;;;14.73;9.63;;;1.30;99.90;2.20;98179.00;;;;5069704;28;20449;-69
2023/02/15 04:07:13;;;;;;;17.23;10.27;;;1.20;99.90;2.10;98189.00;;;;5072432;28;20430;-70
2023/02/15 04:13:09;;;;;;;11.67;8.77;;;1.10;99.90;2.10;98188.00;;;;5070815;28;21003;-70
2023/02/15 04:16:02;;;;;;;15.33;9.80;;;1.70;99.90;2.20;98180.00;;;;5071155;28;20426;-70
2023/02/15 04:25:12;;;;;;;21.17;9.37;;;2.80;99.90;2.00;98191.00;;;;5072459;28;20421;-70
2023/02/15 04:28:01;;;;;;;13.50;7.73;;;1.10;99.90;1.90;98179.00;;;;5060907;28;20426;-70
2023/02/15 04:30:51;;;;;;;11.70;9.23;;;1.90;99.90;2.00;98186.00;;;;5071514;28;20800;-70
2023/02/15 04:33:40;;;;;;;17.03;11.07;;;1.00;99.90;2.10;98188.00;;;;5069976;28;20446;-70
2023/02/15 04:36:28;;;;;;;16.83;10.57;;;1.30;99.90;2.20;98182.00;;;;5063397;28;20462;-70
2023/02/15 04:39:19;;;;;;;14.27;9.27;;;1.50;99.90;2.10;98176.00;;;;5070977;28;20434;-70
2023/02/15 04:42:07;;;;;;;16.73;9.80;;;2.30;99.90;2.00;98173.00;;;;5068569;28;20440;-70
2023/02/15 04:44:56;;;;;;;12.20;8.17;;;1.40;99.90;1.90;98169.00;;;;5071136;28;20429;-70
2023/02/15 04:47:46;;;;;;;19.87;9.37;;;1.00;99.90;2.10;98177.00;;;;5074033;28;20951;-70
2023/02/15 04:50:35;;;;;;;17.07;9.73;;;0.90;99.90;2.10;98171.00;;;;5073888;28;20418;-70
2023/02/15 04:53:24;;;;;;;12.33;9.57;;;1.20;99.90;2.20;98177.00;;;;5071633;28;20966;-70
2023/02/15 04:56:13;;;;;;;13.50;9.90;;;1.00;99.90;2.20;98174.00;;;;5069868;28;20430;-70
2023/02/15 04:59:01;;;;;;;19.07;9.63;;;1.20;99.90;2.30;98164.00;;;;5069932;28;20434;-70
2023/02/15 05:01:51;;;;;;;12.03;9.10;;;1.00;99.90;2.20;98176.00;;;;5075163;28;20422;-70
2023/02/15 05:04:41;;;;;;;11.70;9.13;;;1.00;99.90;2.10;98170.00;;;;5070488;28;20438;-71
2023/02/15 05:07:29;;;;;;;10.43;7.90;;;1.00;99.90;2.10;98164.00;;;;5068964;28;20541;-70
2023/02/15 05:10:18;;;;;;;15.17;9.77;;;1.00;99.90;2.10;98165.00;;;;5069940;28;20803;-70
2023/02/15 05:13:07;;;;;;;13.50;9.47;;;1.00;99.90;2.00;98174.00;;;;5068666;28;20466;-70
2023/02/15 05:15:56;;;;;;;17.53;8.93;;;1.30;99.90;1.90;98163.00;;;;5070373;28;20949;-70
2023/02/15 05:18:45;;;;;;;18.00;10.70;;;1.30;99.90;1.90;98168.00;;;;5072787;28;20893;-70
2023/02/15 05:21:35;;;;;;;15.50;10.27;;;0.80;99.90;1.80;98171.00;;;;5074225;28;20429;-70
2023/02/15 05:30:36;;;;;;;16.70;8.53;;;1.10;99.90;1.40;98161.00;;;;5068964;28;21002;-70
2023/02/15 05:33:25;;;;;;;15.60;8.30;;;2.10;99.90;1.30;98151.00;;;;5068845;28;20830;-69
2023/02/15 05:36:14;;;;;;;15.97;9.60;;;1.20;99.90;1.40;98157.00;;;;5069390;28;20422;-69
2023/02/15 05:39:05;;;;;;;15.93;9.03;;;2.20;99.90;1.30;98152.00;;;;5068761;28;20798;-71
2023/02/15 05:41:54;;;;;;;16.83;10.43;;;1.50;99.90;1.30;98157.00;;;;5069654;28;20430;-69
2023/02/15 05:44:43;;;;;;;15.80;8.97;;;0.90;99.90;1.20;98156.00;;;;5069891;28;20422;-70
2023/02/15 05:47:31;;;;;;;23.30;8.30;;;0.20;99.90;1.20;98157.00;;;;5069634;28;20434;-70
2023/02/15 05:50:20;;;;;;;14.37;8.77;;;0.80;99.90;1.10;98151.00;;;;5067462;28;20427;-70
2023/02/15 05:53:09;;;;;;;12.47;7.87;;;2.00;99.90;1.00;98144.00;;;;5065811;28;20462;-69
2023/02/15 05:55:59;;;;;;;11.73;8.80;;;1.10;99.90;0.90;98146.00;;;;5066182;28;20419;-70
2023/02/15 05:58:49;;;;;;;12.33;8.90;;;1.60;99.90;0.80;98154.00;;;;5068942;28;20524;-69
2023/02/15 06:01:38;;;;;;;16.67;8.57;;;1.00;99.90;0.70;98156.00;;;;5066813;28;20445;-69
2023/02/15 06:04:27;;;;;;;13.20;8.67;;;1.60;99.90;0.70;98142.00;;;;5068324;28;20461;-70
2023/02/15 06:07:16;;;;;;;18.00;9.77;;;0.30;99.90;0.60;98155.00;;;;5066006;28;20453;-70
2023/02/15 06:10:06;;;;;;;14.17;8.93;;;1.80;99.90;0.60;98156.00;;;;5065150;28;20435;-70
2023/02/15 06:12:56;;;;;;;18.23;9.37;;;-0.30;99.90;0.60;98155.00;;;;5062715;28;20458;-69
2023/02/15 06:15:45;;;;;;;19.33;10.37;;;0.80;99.90;0.50;98156.00;;;;5068509;28;20907;-70
2023/02/15 06:18:34;;;;;;;16.37;9.90;;;1.20;99.90;0.50;98163.00;;;;5068877;28;20863;-69
2023/02/15 06:21:23;;;;;;;21.23;9.70;;;0.10;99.90;0.30;98157.00;;;;5069330;28;20427;-69
2023/02/15 06:24:12;;;;;;;15.57;9.23;;;1.80;99.90;0.40;98165.00;;;;5057125;28;20439;-70
2023/02/15 06:27:01;;;;;;;17.70;10.17;;;-0.50;99.90;0.40;98170.00;;;;5066625;28;20439;-69
2023/02/15 06:29:51;;;;;;;14.17;10.83;;;0.70;99.90;0.40;98176.00;;;;5057642;28;20417;-70
2023/02/15 06:32:41;;;;;;;15.13;9.67;;;-0.60;99.90;0.40;98167.00;;;;5062711;28;20457;-70
2023/02/15 06:35:30;;;;;;;12.53;8.77;;;-0.60;99.90;0.40;98177.00;;;;5070223;28;20426;-69
2023/02/15 06:38:18;;;;;;;13.40;8.87;;;1.40;99.90;0.40;98173.00;;;;5068361;28;20466;-70
2023/02/15 06:41:07;;;;;;;17.53;10.50;;;-0.60;99.90;0.50;98175.00;;;;5068915;28;20484;-70
2023/02/15 06:43:56;;;;;;;15.57;9.13;;;1.00;99.90;0.50;98168.00;;;;5068270;28;20458;-70
2023/02/15 06:46:46;;;;;;;11.43;9.63;;;-0.60;99.90;0.50;98175.00;;;;5066566;28;20441;-69
2023/02/15 06:49:35;;;;;;;17.73;10.37;;;1.90;99.90;0.80;98180.00;;;;5069568;28;20433;-70
2023/02/15 06:52:24;;;;;;;13.97;9.00;;;1.80;99.90;0.80;98188.00;;;;5068392;28;20430;-70
2023/02/15 06:55:12;;;;;;;16.00;10.03;;;1.30;99.90;0.90;98184.00;;;;5064260;28;20438;-71
2023/02/15 06:58:01;;;;;;;20.03;10.07;;;1.50;99.90;1.10;98187.00;;;;5067124;28;20466;-70
2023/02/15 07:00:50;;;;;;;19.83;10.33;;;1.80;99.90;1.20;98195.00;;;;5062779;28;20438;-70
2023/02/15 07:03:40;;;;;;;17.50;10.00;;;1.40;99.90;1.30;98195.00;;;;5068394;28;20446;-70
2023/02/15 07:06:32;;;;;;;13.77;10.03;;;0.10;99.90;1.30;98193.00;;;;5069457;28;20886;-70
2023/02/15 07:09:21;;;;;;;15.17;9.57;;;0.20;99.90;1.50;98188.00;;;;5066854;28;20418;-70
2023/02/15 07:15:20;;;;;;;16.63;8.67;;;0.90;99.90;1.90;98183.00;;;;5068975;28;20425;-70
2023/02/15 07:18:10;;;;;;;16.73;10.00;;;2.30;99.90;1.90;98188.00;;;;5069011;28;20891;-70
2023/02/15 07:21:00;;;;;;;17.00;10.53;;;0.70;99.90;1.90;98178.00;;;;5069638;28;20494;-70
2023/02/15 07:23:49;;;;;;;14.57;9.70;;;1.80;99.90;1.80;98171.00;;;;5068864;28;20480;-72
2023/02/15 07:26:38;;;;;;;19.50;10.57;;;1.00;99.90;1.80;98170.00;;;;5072995;28;20423;-70
2023/02/15 07:29:26;;;;;;;12.93;8.40;;;0.80;99.90;1.90;98171.00;;;;5072565;28;20422;-70
2023/02/15 07:32:15;;;;;;;20.23;11.00;;;0.90;99.90;2.00;98171.00;;;;5073237;28;20763;-71
2023/02/15 07:35:04;;;;;;;14.37;9.60;;;0.90;99.90;2.00;98157.00;;;;5072876;28;20429;-70
2023/02/15 07:37:55;;;;;;;10.90;8.40;;;1.00;99.90;2.00;98167.00;;;;5072272;28;20480;-71
2023/02/15 07:40:44;;;;;;;18.77;9.53;;;1.00;99.90;1.80;98158.00;;;;5071584;28;20427;-70
2023/02/15 07:43:35;;;;;;;17.97;11.03;;;2.00;99.90;2.10;98171.00;;;;5073197;28;20453;-71
2023/02/15 07:46:24;;;;;;;16.37;9.23;;;1.30;99.90;2.00;98155.00;;;;5072671;28;20472;-71
2023/02/15 07:49:14;;;;;;;19.87;8.47;;;1.10;99.90;2.10;98155.00;;;;5072476;28;20426;-71
2023/02/15 07:52:03;;;;;;;17.80;10.97;;;1.10;99.90;1.80;98158.00;;;;5072531;28;20430;-72
2023/02/15 07:54:53;;;;;;;17.57;10.53;;;1.80;99.90;2.10;98155.00;;;;5073286;28;20418;-71
2023/02/15 07:57:44;;;;;;;16.90;10.40;;;1.10;99.90;2.00;98156.00;;;;5071913;28;20426;-72
2023/02/15 08:00:56;;;;;;;17.73;9.80;;;1.50;99.90;1.90;98147.00;;;;5071460;28;20427;-71
2023/02/15 08:03:42;;;;;;;18.60;10.47;;;2.20;99.90;2.10;98152.00;;;;5065514;28;20445;-71
2023/02/15 08:06:33;;;;;;;14.77;9.33;;;1.10;99.90;1.90;98151.00;;;;5070937;28;20422;-72
2023/02/15 08:09:22;;;;;;;16.60;9.97;;;1.80;99.90;1.80;98147.00;;;;5058994;28;20500;-70
2023/02/15 08:12:12;;;;;;;17.57;9.67;;;1.10;99.90;1.90;98146.00;;;;5071030;28;20431;-70
2023/02/15 08:15:01;;;;;;;13.27;9.20;;;2.20;99.90;2.20;98150.00;;;;5072725;28;20433;-70
2023/02/15 08:17:50;;;;;;;16.13;10.07;;;1.90;99.90;2.40;98158.00;;;;5072040;28;20418;-70
2023/02/15 08:20:38;;;;;;;16.90;10.73;;;1.90;99.90;2.50;98150.00;;;;5072021;28;20557;-71
2023/02/15 08:23:27;;;;;;;15.33;9.80;;;2.60;99.90;2.80;98138.00;;;;5071830;28;20810;-70
2023/02/15 08:26:16;;;;;;;20.03;11.80;;;1.50;99.90;3.40;98155.00;;;;5071654;28;20953;-70
2023/02/15 08:29:07;;;;;;;16.20;10.13;;;1.70;99.90;3.40;98153.00;;;;5071456;28;20418;-71
2023/02/15 08:32:01;;;;;;;16.03;10.13;;;2.40;99.90;3.70;98155.00;;;;5071650;28;20434;-70
2023/02/15 08:34:50;;;;;;;16.63;10.40;;;2.10;99.90;4.00;98158.00;;;;5072219;28;20411;-70
2023/02/15 08:37:39;;;;;;;20.80;11.53;;;2.80;99.90;4.10;98156.00;;;;5070201;28;20433;-70
2023/02/15 08:40:28;;;;;;;15.03;9.80;;;2.50;99.90;4.30;98155.00;;;;5071360;28;20429;-71
2023/02/15 08:43:17;;;;;;;19.63;12.00;;;2.60;99.90;4.50;98145.00;;;;5071408;28;21063;-70
2023/02/15 08:46:08;;;;;;;20.07;10.87;;;2.80;99.90;4.60;98154.00;;;;5071527;28;20411;-71
2023/02/15 08:48:57;;;;;;;21.50;10.87;;;3.90;99.90;4.50;98143.00;;;;5070752;28;20960;-70
2023/02/15 08:51:47;;;;;;;20.37;8.53;;;3.10;99.90;4.90;98149.00;;;;5071586;28;20411;-70
2023/02/15 08:54:35;;;;;;;13.93;8.40;;;5.40;99.90;4.80;98147.00;;;;5071366;28;20434;-70
2023/02/15 08:57:24;;;;;;;16.43;8.93;;;3.30;99.90;5.00;98149.00;;;;5071343;28;20915;-70
2023/02/15 09:00:15;;;;;;;15.93;8.23;;;3.40;99.90;4.90;98150.00;;;;5071640;28;20466;-71
2023/02/15 09:03:05;;;;;;;11.57;8.77;;;3.50;99.90;5.10;98147.00;;;;5072253;28;20458;-70
2023/02/15 09:05:59;;;;;;;14.90;8.07;;;3.50;99.90;4.40;98149.00;;;;5070970;28;21240;-71
2023/02/15 09:08:48;;;;;;;19.27;8.47;;;3.50;99.90;4.90;98137.00;;;;5070403;28;20203;-71
2023/02/15 09:11:39;;;;;;;12.30;9.13;;;3.50;99.90;5.40;98138.00;;;;5070854;28;20429;-69
2023/02/15 09:14:28;;;;;;;15.23;9.83;;;3.70;99.90;5.40;98142.00;;;;5071210;28;20220;-68
2023/02/15 09:17:17;;;;;;;12.97;9.10;;;3.80;99.90;5.50;98145.00;;;;5071097;28;20434;-70
2023/02/15 09:20:09;;;;;;;9.20;6.67;;;3.90;99.90;5.10;98138.00;;;;5070891;28;20465;-69
2023/02/15 09:22:58;;;;;;;14.27;8.77;;;4.00;99.90;5.70;98145.00;;;;5070269;28;20453;-69
2023/02/15 09:25:47;;;;;;;20.27;9.20;;;4.10;99.90;6.10;98137.00;;;;5070294;28;20430;-69
2023/02/15 09:28:36;;;;;;;15.80;8.63;;;4.30;99.90;6.20;98137.00;;;;5066785;28;20257;-70
2023/02/15 09:31:29;;;;;;;16.57;8.80;;;4.50;99.90;5.90;98132.00;;;;5070335;28;20679;-68
2023/02/15 09:34:21;;;;;;;14.10;8.43;;;4.60;99.90;6.30;98134.00;;;;5071888;28;20445;-69
2023/02/15 09:37:11;;;;;;;13.77;8.97;;;5.60;99.90;6.50;98134.00;;;;5067132;28;20196;-69
2023/02/15 09:40:00;;;;;;;12.03;8.10;;;4.80;99.90;6.70;98130.00;;;;5065372;28;20258;-69
2023/02/15 09:43:17;;;;;;;16.33;10.93;;;5.00;99.90;7.00;98129.00;;;;5070185;28;20246;-69
2023/02/15 09:46:33;;;;;;;15.17;9.37;;;5.20;99.90;7.20;98135.00;;;;5070163;28;20212;-69
2023/02/15 09:49:34;;;;;;;21.70;10.13;;;5.30;99.90;7.50;98132.00;;;;5069465;28;20204;-69
2023/02/15 09:52:54;;;;;;;18.30;9.43;;;5.60;99.90;7.60;98138.00;;;;5067708;28;20198;-69
2023/02/15 09:55:56;;;;;;;15.27;9.93;;;5.80;99.90;7.80;98124.00;;;;5070381;28;20196;-70
2023/02/15 09:58:56;;;;;;;14.83;9.47;;;5.90;99.90;8.10;98119.00;;;;5058203;28;20207;-68
2023/02/15 10:01:58;;;;;;;16.77;11.53;;;6.10;99.90;7.90;98124.00;;;;5069431;28;20207;-68
2023/02/15 10:05:04;;;;;;;16.47;10.33;;;6.30;99.90;8.10;98114.00;;;;5069448;28;20199;-69
2023/02/15 10:08:40;;;;;;;21.30;12.57;;;6.40;99.90;8.40;98124.00;;;;5069495;28;20222;-68
2023/02/15 10:11:48;;;;;;;16.07;10.27;;;6.50;99.90;8.90;98120.00;;;;5053685;28;20207;-68
2023/02/15 10:15:12;;;;;;;23.83;11.77;;;6.80;99.90;8.60;98118.00;;;;5069724;28;20200;-69
2023/02/15 10:18:19;;;;;;;17.87;11.57;;;7.00;99.90;8.70;98112.00;;;;5067606;28;20686;-68
2023/02/15 10:21:21;;;;;;;18.63;10.43;;;7.00;99.90;8.70;98110.00;;;;5068977;28;20219;-69
2023/02/15 10:24:44;;;;;;;16.50;12.27;;;7.10;99.90;9.20;98116.00;;;;5067887;28;20223;-69
2023/02/15 10:27:46;;;;;;;26.13;12.67;;;7.30;99.90;9.10;98102.00;;;;5066774;28;20230;-69
2023/02/15 10:30:44;;;;;;;23.97;13.53;;;7.40;99.90;8.60;98105.00;;;;5069426;28;20211;-69
2023/02/15 10:33:41;;;;;;;22.97;12.10;;;7.40;99.90;8.70;98101.00;;;;5068724;28;20238;-70
2023/02/15 10:36:58;;;;;;;23.20;13.47;;;7.40;99.90;9.20;98097.00;;;;5069004;28;20203;-70
2023/02/15 10:40:03;;;;;;;22.20;12.83;;;7.50;99.90;9.40;98107.00;;;;5062119;28;20220;-67
2023/02/15 10:43:12;;;;;;;21.30;11.33;;;7.70;99.90;10.30;98102.00;;;;5063958;28;20231;-70
2023/02/15 10:46:15;;;;;;;19.97;11.23;;;8.00;99.90;10.20;98086.00;;;;5059097;28;20203;-68
2023/02/15 10:49:27;;;;;;;21.37;11.80;;;8.50;99.90;11.10;98076.00;;;;5068857;28;20215;-70
2023/02/15 10:52:29;;;;;;;15.17;11.40;;;9.20;99.90;11.60;98077.00;;;;5069192;28;20203;-70
2023/02/15 10:55:31;;;;;;;22.10;12.37;;;10.10;99.90;12.60;98078.00;;;;5069393;28;20200;-70
2023/02/15 10:58:37;;;;;;;15.37;11.17;;;10.80;99.80;12.60;98072.00;;;;5064716;28;20199;-69
2023/02/15 11:01:33;;;;;;;20.67;11.07;;;11.50;96.50;12.40;98069.00;;;;5067224;28;20230;-69
2023/02/15 11:05:02;;;;;;;22.23;12.33;;;11.50;95.10;13.30;98066.00;;;;5063034;28;20654;-69
2023/02/15 11:07:54;;;;;;;17.80;11.10;;;11.80;93.80;12.90;98056.00;;;;5066385;28;20199;-70
2023/02/15 11:10:50;;;;;;;15.03;11.17;;;12.10;92.10;12.30;98051.00;;;;5069064;28;20196;-69
2023/02/15 11:13:46;;;;;;;17.70;11.70;;;12.10;91.10;13.30;98066.00;;;;5068612;28;20232;-69
2023/02/15 11:16:38;;;;;;;19.70;11.47;;;12.10;90.80;13.40;98053.00;;;;5069227;28;20211;-69
2023/02/15 11:19:33;;;;;;;23.90;13.17;;;12.10;90.30;13.70;98044.00;;;;5069186;28;20698;-67
2023/02/15 11:22:22;;;;;;;21.93;13.47;;;12.20;89.60;14.00;98038.00;;;;5068471;28;20204;-69
2023/02/15 11:25:20;;;;;;;18.87;13.33;;;12.50;89.60;14.00;98037.00;;;;5071396;28;20191;-68
2023/02/15 11:28:22;;;;;;;22.23;12.93;;;12.60;89.40;14.10;98027.00;;;;5067390;28;20192;-68
2023/02/15 11:31:17;;;;;;;18.87;13.70;;;12.80;86.60;13.50;98032.00;;;;5069155;28;20214;-70
2023/02/15 11:34:18;;;;;;;20.80;12.40;;;12.80;87.50;13.30;98009.00;;;;5067148;28;20681;-67
2023/02/15 11:37:13;;;;;;;22.07;14.97;;;12.80;86.10;14.80;98017.00;;;;5069253;28;20191;-69
2023/02/15 11:40:04;;;;;;;21.70;13.67;;;12.80;87.40;14.70;98017.00;;;;5066345;28;20534;-68
2023/02/15 11:42:57;;;;;;;21.27;14.47;;;13.20;85.90;12.50;98002.00;;;;5068806;28;20211;-73
2023/02/15 11:45:47;;;;;;;19.60;13.63;;;13.00;83.20;14.10;97997.00;;;;5066795;28;20582;-69
2023/02/15 11:48:36;;;;;;;22.67;14.97;;;12.80;85.30;14.50;98002.00;;;;5067907;28;20208;-67
2023/02/15 11:51:27;;;;;;;20.63;13.43;;;12.90;84.90;14.60;98001.00;;;;5069153;28;20207;-68
2023/02/15 11:54:16;;;;;;;20.47;14.20;;;13.00;83.80;14.50;97994.00;;;;5069009;28;20653;-69
2023/02/15 11:57:14;;;;;;;21.70;15.00;;;13.20;81.90;15.10;98000.00;;;;5069401;28;20200;-68
2023/02/15 12:00:14;;;;;;;19.77;12.80;;;13.30;82.40;15.20;97986.00;;;;5068781;28;20216;-69
2023/02/15 12:03:13;;;;;;;23.33;14.30;;;13.50;81.20;15.50;97983.00;;;;5068950;28;20234;-70
2023/02/15 12:06:05;;;;;;;21.07;13.47;;;13.70;80.90;15.70;97984.00;;;;5068658;28;20679;-69
2023/02/15 12:09:04;;;;;;;28.23;15.53;;;13.80;80.70;16.10;97976.00;;;;5067627;28;20693;-68
2023/02/15 12:11:53;;;;;;;23.30;14.90;;;14.00;79.80;16.20;97974.00;;;;5069961;28;20196;-70
2023/02/15 12:14:49;;;;;;;22.80;15.70;;;14.30;79.50;15.70;97973.00;;;;5072025;28;20223;-69
2023/02/15 12:17:41;;;;;;;25.03;15.90;;;;;15.80;97964.00;;;;5071207;28;20699;-71
2023/02/15 12:20:33;;;;;;;23.20;16.27;;;;;15.90;97960.00;;;;5072479;28;20714;-69
2023/02/15 12:23:23;;;;;;;24.67;16.60;;;;;15.90;97963.00;;;;5071571;28;20224;-69
2023/02/15 12:26:12;;;;;;;23.43;15.07;;;;;16.60;97961.00;;;;5069643;28;20203;-68
2023/02/15 12:29:03;;;;;;;19.37;14.23;;;;;15.50;97955.00;;;;5068731;28;20199;-68
2023/02/15 12:31:53;;;;;;;24.30;16.37;;;;;16.80;97946.00;;;;5070532;28;20203;-67
2023/02/15 12:34:43;;;;;;;24.00;15.47;;;;;17.10;97950.00;;;;5072349;28;20300;-68
2023/02/15 12:37:34;;;;;;;23.10;16.20;;;;;17.60;97952.00;;;;5063517;28;20676;-70
2023/02/15 12:40:27;;;;;;;29.23;16.97;;;;;17.50;97937.00;;;;5070475;28;20220;-69
2023/02/15 12:43:27;;;;;;;29.10;17.67;;;;;17.10;97934.00;;;;5071033;28;20227;-69
2023/02/15 12:46:22;;;;;;;22.10;16.47;;;;;17.90;97925.00;;;;5070962;28;20215;-68
2023/02/15 12:49:19;;;;;;;27.83;16.53;;;;;18.00;97933.00;;;;5071182;28;20200;-69
2023/02/15 12:52:25;;;;;;;26.77;17.50;;;;;18.10;97938.00;;;;5071721;28;20748;-67
2023/02/15 12:55:23;;;;;;;25.23;17.27;;;;;17.70;97939.00;;;;5071510;28;20204;-68
2023/02/15 12:58:18;;;;;;;24.90;18.23;;;;;17.60;97937.00;;;;5069816;28;20294;-67
2023/02/15 13:01:15;;;;;;;25.97;17.03;;;;;18.00;97934.00;;;;5071721;28;20224;-66
2023/02/15 13:04:06;;;;;;;26.30;17.13;;;;;16.90;97934.00;;;;5064637;28;20215;-68
2023/02/15 13:06:58;;;;;;;33.60;18.33;;;;;17.10;97939.00;;;;5074466;28;20200;-68
2023/02/15 13:09:48;;;;;;;26.40;17.20;;;16.10;68.10;17.70;97935.00;;;;5064060;28;20644;-66
2023/02/15 13:12:38;;;;;;;30.53;20.00;;;16.00;68.40;16.60;97930.00;;;;5075713;28;20236;-63
2023/02/15 13:15:35;;;;;;;25.50;16.87;;;16.00;68.90;15.60;97924.00;;;;5070338;28;20247;-70
2023/02/15 13:18:33;;;;;;;24.97;18.07;;;15.90;68.10;18.10;97927.00;;;;5061535;28;20204;-67
2023/02/15 13:21:31;;;;;;;30.87;20.73;;;16.00;69.50;17.60;97923.00;;;;5070526;28;20238;-67
2023/02/15 13:24:24;;;;;;;32.37;18.47;;;16.30;68.10;18.00;97918.00;;;;5070394;28;20216;-66
2023/02/15 13:27:17;;;;;;;28.37;19.60;;;16.40;67.50;17.20;97916.00;;;;5069162;28;20208;-64